X  Κλείσε Στοιχεία αεροπορικών μετεωρολογικών δεδομένων METAR     YMML Melbourne International Airport
θερμοκρασία
11°C θερμοκρασία
9°C Σημείο δρόσου
88% Υγρασία



Ανεμος
13 MPH
21 KM/H
6 M/S
11 KTS



260°
D
Τρέχουσες συνθήκες

Μερικώς συννεφιασμένος Μερικώς συννεφιασμένος
πίεση 1024.04 (hPa) - 30.24 (inHg)
Ορατότητα 6 (μίλι) - 9.7 (km)
Aεροδρόμιο
Κωδικός αεροδρομίου YMML

Τοποθεσία: Melbourne International Airport
Απόσταση: 18 (mi)

Metar:
YMML 242130Z 26011KT 9999 FEW013 BKN045 11/09 Q1024 RF00.0/000.0

ώρα: 25-04-2024 07:30 AEST